createdAt,value
2023-05-10T00:00:41.099Z,8.67
2023-05-10T00:03:26.732Z,8.63
2023-05-10T00:06:12.566Z,8.62
2023-05-10T00:08:58.226Z,8.61
2023-05-10T00:11:43.500Z,8.58
2023-05-10T00:14:29.610Z,8.58
2023-05-10T00:17:15.216Z,8.55
2023-05-10T00:20:00.827Z,8.49
2023-05-10T00:22:46.388Z,8.38
2023-05-10T00:25:32.090Z,8.35
2023-05-10T00:28:17.331Z,8.30
2023-05-10T00:31:03.472Z,8.25
2023-05-10T00:33:49.025Z,8.24
2023-05-10T00:36:34.685Z,8.22
2023-05-10T00:39:20.571Z,8.23
2023-05-10T00:42:05.946Z,8.22
2023-05-10T00:44:52.172Z,8.24
2023-05-10T00:47:38.818Z,8.27
2023-05-10T00:50:24.486Z,8.21
2023-05-10T00:53:10.755Z,8.19
2023-05-10T00:55:57.291Z,8.15
2023-05-10T00:58:43.539Z,8.11
2023-05-10T01:05:00.551Z,8.13
2023-05-10T01:07:46.333Z,8.13
2023-05-10T01:10:32.353Z,8.10
2023-05-10T01:13:31.229Z,8.08
2023-05-10T01:16:17.552Z,8.06
2023-05-10T01:19:13.096Z,8.07
2023-05-10T01:22:31.656Z,8.08
2023-05-10T01:25:20.592Z,8.04
2023-05-10T01:28:06.224Z,8.01
2023-05-10T01:35:53.608Z,7.93
2023-05-10T01:42:48.338Z,7.96
2023-05-10T01:45:51.224Z,7.97
2023-05-10T01:48:48.069Z,8.06
2023-05-10T01:51:42.547Z,8.10
2023-05-10T01:54:29.938Z,8.06
2023-05-10T01:57:19.263Z,8.03
2023-05-10T02:00:08.705Z,7.97
2023-05-10T02:03:04.711Z,7.92
2023-05-10T02:05:52.575Z,7.88
2023-05-10T02:08:54.795Z,7.86
2023-05-10T02:15:22.109Z,7.83
2023-05-10T02:21:31.702Z,7.81
2023-05-10T02:24:36.467Z,7.81
2023-05-10T02:27:24.624Z,7.81
2023-05-10T02:30:11.862Z,7.76
2023-05-10T02:32:59.305Z,7.75
2023-05-10T02:35:47.231Z,7.72
2023-05-10T02:38:34.544Z,7.70
2023-05-10T02:41:23.079Z,7.64
2023-05-10T02:44:10.069Z,7.62
2023-05-10T02:46:56.463Z,7.62
2023-05-10T02:49:42.121Z,7.59
2023-05-10T02:52:31.472Z,7.58
2023-05-10T02:55:21.855Z,7.56
2023-05-10T02:58:07.418Z,7.56
2023-05-10T03:00:53.005Z,7.52
2023-05-10T03:03:38.499Z,7.50
2023-05-10T03:06:24.108Z,7.52
2023-05-10T03:09:11.633Z,7.54
2023-05-10T03:12:03.250Z,7.54
2023-05-10T03:15:05.481Z,7.61
2023-05-10T03:18:04.856Z,7.66
2023-05-10T03:20:59.881Z,7.65
2023-05-10T03:24:03.976Z,7.68
2023-05-10T03:26:54.328Z,7.72
2023-05-10T03:29:40.629Z,7.74
2023-05-10T03:32:27.609Z,7.80
2023-05-10T03:35:16.415Z,7.83
2023-05-10T03:38:03.051Z,7.83
2023-05-10T03:40:48.895Z,7.91
2023-05-10T03:43:34.275Z,7.98
2023-05-10T03:46:22.023Z,8.07
2023-05-10T03:49:07.639Z,8.18
2023-05-10T03:51:53.407Z,8.26
2023-05-10T03:54:38.715Z,8.34
2023-05-10T03:57:24.256Z,8.41
2023-05-10T04:00:11.066Z,8.46
2023-05-10T04:03:03.030Z,8.54
2023-05-10T04:05:48.685Z,8.66
2023-05-10T04:08:34.421Z,8.78
2023-05-10T04:11:22.349Z,8.90
2023-05-10T04:14:08.092Z,9.02
2023-05-10T04:16:53.619Z,9.16
2023-05-10T04:19:39.028Z,9.34
2023-05-10T04:22:24.908Z,9.52
2023-05-10T04:25:10.259Z,9.69
2023-05-10T04:27:55.336Z,9.86
2023-05-10T04:30:40.879Z,10.04
2023-05-10T04:33:26.630Z,10.19
2023-05-10T04:36:12.078Z,10.34
2023-05-10T04:38:58.788Z,10.48
2023-05-10T04:41:45.049Z,10.60
2023-05-10T04:44:31.110Z,10.71
2023-05-10T04:47:16.772Z,10.82
2023-05-10T04:50:02.265Z,10.93
2023-05-10T04:52:47.486Z,11.04
2023-05-10T04:55:33.149Z,11.14
2023-05-10T04:58:18.747Z,11.23
2023-05-10T05:01:10.963Z,11.36
2023-05-10T05:03:57.001Z,11.51
2023-05-10T05:06:45.425Z,11.63
2023-05-10T05:09:34.628Z,11.76
2023-05-10T05:12:23.133Z,11.88
2023-05-10T05:15:10.151Z,11.98
2023-05-10T05:17:55.785Z,12.08
2023-05-10T05:20:41.672Z,12.16
2023-05-10T05:23:27.345Z,12.23
2023-05-10T05:26:12.879Z,12.30
2023-05-10T05:28:58.380Z,12.37
2023-05-10T05:31:43.697Z,12.44
2023-05-10T05:34:31.168Z,12.53
2023-05-10T05:37:19.351Z,12.62
2023-05-10T05:40:05.795Z,12.69
2023-05-10T05:42:51.327Z,12.76
2023-05-10T05:45:36.690Z,12.82
2023-05-10T05:48:22.397Z,12.88
2023-05-10T05:51:08.232Z,12.93
2023-05-10T05:53:53.942Z,13.00
2023-05-10T05:56:39.332Z,13.09
2023-05-10T05:59:27.912Z,13.20
2023-05-10T06:02:14.822Z,13.31
2023-05-10T06:05:01.664Z,13.44
2023-05-10T06:07:50.668Z,13.57
2023-05-10T06:10:37.173Z,13.70
2023-05-10T06:13:22.868Z,13.77
2023-05-10T06:16:08.713Z,13.84
2023-05-10T06:18:54.484Z,13.82
2023-05-10T06:21:40.474Z,13.75
2023-05-10T06:24:27.528Z,13.67
2023-05-10T06:27:12.965Z,13.61
2023-05-10T06:30:11.611Z,13.56
2023-05-10T06:32:59.792Z,13.61
2023-05-10T06:35:48.343Z,13.78
2023-05-10T06:38:34.841Z,13.82
2023-05-10T06:41:24.743Z,13.82
2023-05-10T06:44:15.068Z,13.86
2023-05-10T06:47:02.286Z,14.02
2023-05-10T06:49:56.517Z,14.13
2023-05-10T06:52:46.025Z,14.27
2023-05-10T06:55:31.551Z,14.55
2023-05-10T06:58:19.707Z,14.76
2023-05-10T07:01:05.919Z,14.83
2023-05-10T07:03:51.747Z,14.88
2023-05-10T07:06:37.367Z,15.04
2023-05-10T07:09:24.025Z,15.26
2023-05-10T07:12:12.150Z,15.40
2023-05-10T07:14:59.218Z,15.43
2023-05-10T07:17:46.306Z,15.43
2023-05-10T07:20:31.983Z,15.59
2023-05-10T07:23:21.428Z,15.73
2023-05-10T07:26:17.029Z,15.90
2023-05-10T07:29:03.690Z,16.17
2023-05-10T07:31:57.941Z,16.45
2023-05-10T07:34:44.252Z,16.68
2023-05-10T07:37:35.280Z,16.67
2023-05-10T07:40:23.282Z,16.68
2023-05-10T07:43:10.145Z,16.71
2023-05-10T07:45:57.899Z,16.72
2023-05-10T07:48:43.295Z,16.76
2023-05-10T07:51:29.044Z,16.83
2023-05-10T07:54:16.004Z,16.81
2023-05-10T07:57:01.620Z,16.70
2023-05-10T07:59:47.314Z,16.73
2023-05-10T08:02:34.406Z,16.78
2023-05-10T08:05:20.282Z,16.85
2023-05-10T08:08:05.608Z,16.87
2023-05-10T08:10:51.291Z,16.79
2023-05-10T08:13:36.669Z,16.81
2023-05-10T08:16:22.313Z,16.68
2023-05-10T08:19:07.868Z,16.79
2023-05-10T08:21:55.827Z,16.82
2023-05-10T08:24:42.401Z,16.85
2023-05-10T08:27:27.600Z,16.94
2023-05-10T08:30:13.489Z,17.02
2023-05-10T08:33:00.836Z,17.10
2023-05-10T08:35:46.116Z,17.13
2023-05-10T08:38:31.768Z,17.17
2023-05-10T08:41:21.302Z,17.23
2023-05-10T08:44:12.391Z,17.19
2023-05-10T08:47:03.828Z,17.14
2023-05-10T08:49:51.606Z,17.06
2023-05-10T08:52:41.439Z,17.14
2023-05-10T08:55:33.904Z,17.18
2023-05-10T08:58:20.068Z,17.18
2023-05-10T09:01:06.163Z,17.25
2023-05-10T09:03:51.651Z,17.41
2023-05-10T09:06:37.851Z,17.51
2023-05-10T09:09:25.811Z,17.59
2023-05-10T09:12:12.685Z,17.71
2023-05-10T09:15:00.503Z,17.69
2023-05-10T09:17:47.759Z,17.78
2023-05-10T09:20:35.000Z,17.89
2023-05-10T09:26:49.364Z,17.81
2023-05-10T09:33:22.706Z,17.81
2023-05-10T09:36:09.019Z,17.81
2023-05-10T09:38:55.321Z,17.90
2023-05-10T09:41:55.383Z,17.93
2023-05-10T09:44:43.957Z,17.86
2023-05-10T09:47:29.547Z,17.73
2023-05-10T09:50:15.453Z,17.80
2023-05-10T09:53:03.829Z,17.88
2023-05-10T09:55:52.492Z,17.90
2023-05-10T09:58:42.524Z,17.79
2023-05-10T10:01:32.466Z,17.83
2023-05-10T10:04:27.856Z,17.89
2023-05-10T10:07:13.916Z,18.04
2023-05-10T10:10:02.971Z,18.12
2023-05-10T10:12:49.073Z,18.06
2023-05-10T10:18:30.553Z,18.01
2023-05-10T10:24:25.696Z,18.27
2023-05-10T10:27:20.836Z,18.34
2023-05-10T10:30:44.403Z,18.41
2023-05-10T10:34:07.691Z,18.39
2023-05-10T10:36:57.025Z,18.36
2023-05-10T10:39:42.547Z,18.26
2023-05-10T10:42:50.169Z,18.33
2023-05-10T10:45:42.495Z,18.21
2023-05-10T10:48:29.081Z,18.12
2023-05-10T10:51:15.457Z,18.24
2023-05-10T10:54:10.629Z,18.29
2023-05-10T11:01:16.500Z,18.38
2023-05-10T11:04:05.956Z,18.44
2023-05-10T11:07:11.456Z,18.37
2023-05-10T11:10:05.308Z,18.43
2023-05-10T11:13:01.313Z,18.66
2023-05-10T11:15:50.280Z,18.72
2023-05-10T11:18:37.717Z,18.76
2023-05-10T11:21:23.583Z,18.80
2023-05-10T11:24:14.523Z,18.67
2023-05-10T11:27:04.456Z,18.73
2023-05-10T11:30:08.448Z,18.79
2023-05-10T11:32:56.054Z,18.76
2023-05-10T11:35:43.616Z,18.73
2023-05-10T11:38:36.128Z,18.62
2023-05-10T11:41:24.810Z,18.68
2023-05-10T11:44:11.093Z,18.71
2023-05-10T11:47:00.161Z,18.75
2023-05-10T11:49:46.031Z,18.83
2023-05-10T11:52:38.031Z,18.89
2023-05-10T11:55:26.861Z,18.96
2023-05-10T11:58:12.264Z,18.88
2023-05-10T12:00:59.095Z,19.02
2023-05-10T12:03:44.915Z,19.09
2023-05-10T12:06:40.910Z,19.16
2023-05-10T12:09:39.644Z,19.51
2023-05-10T12:12:26.656Z,19.98
2023-05-10T12:15:23.815Z,20.45
2023-05-10T12:18:10.996Z,20.71
2023-05-10T12:21:04.665Z,20.80
2023-05-10T12:23:56.915Z,20.99
2023-05-10T12:26:42.564Z,21.36
2023-05-10T12:29:30.933Z,21.42
2023-05-10T12:32:16.390Z,21.58
2023-05-10T12:35:04.514Z,21.86
2023-05-10T12:37:52.914Z,22.03
2023-05-10T12:40:38.281Z,22.33
2023-05-10T12:43:23.808Z,22.36
2023-05-10T12:46:19.177Z,22.44
2023-05-10T12:49:09.465Z,22.72
2023-05-10T12:51:56.221Z,23.03
2023-05-10T12:54:57.010Z,23.16
2023-05-10T12:57:42.274Z,23.24
2023-05-10T13:00:27.843Z,23.49
2023-05-10T13:03:16.218Z,23.76
2023-05-10T13:06:01.947Z,23.91
2023-05-10T13:08:47.342Z,23.99
2023-05-10T13:11:37.386Z,24.05
2023-05-10T13:14:25.685Z,24.29
2023-05-10T13:17:19.178Z,24.22
2023-05-10T13:20:16.588Z,24.36
2023-05-10T13:23:03.432Z,24.46
2023-05-10T13:25:49.441Z,24.70
2023-05-10T13:28:35.334Z,24.78
2023-05-10T13:31:21.326Z,24.94
2023-05-10T13:34:07.183Z,24.85
2023-05-10T13:36:55.662Z,25.07
2023-05-10T13:39:41.033Z,25.22
2023-05-10T13:42:27.603Z,25.40
2023-05-10T13:45:13.538Z,25.52
2023-05-10T13:47:58.910Z,25.50
2023-05-10T13:50:44.167Z,25.65
2023-05-10T13:53:30.016Z,25.84
2023-05-10T13:56:16.476Z,25.91
2023-05-10T13:59:02.385Z,26.04
2023-05-10T14:01:47.729Z,26.41
2023-05-10T14:04:34.820Z,26.62
2023-05-10T14:07:20.188Z,26.40
2023-05-10T14:10:06.665Z,26.27
2023-05-10T14:12:52.584Z,26.30
2023-05-10T14:15:38.004Z,26.76
2023-05-10T14:18:23.651Z,26.80
2023-05-10T14:21:10.566Z,26.86
2023-05-10T14:23:57.611Z,26.88
2023-05-10T14:26:43.068Z,26.92
2023-05-10T14:29:28.432Z,26.70
2023-05-10T14:32:14.123Z,26.57
2023-05-10T14:35:00.178Z,26.94
2023-05-10T14:37:45.991Z,27.14
2023-05-10T14:40:31.693Z,27.07
2023-05-10T14:43:17.218Z,26.76
2023-05-10T14:46:02.583Z,26.81
2023-05-10T14:48:48.613Z,27.18
2023-05-10T14:51:34.440Z,27.10
2023-05-10T14:54:19.801Z,27.15
2023-05-10T14:57:05.845Z,27.36
2023-05-10T14:59:51.032Z,27.47
2023-05-10T15:02:37.415Z,27.17
2023-05-10T15:05:24.022Z,27.02
2023-05-10T15:08:09.947Z,27.02
2023-05-10T15:10:56.437Z,27.00
2023-05-10T15:13:41.910Z,27.09
2023-05-10T15:16:28.682Z,27.24
2023-05-10T15:19:19.176Z,27.26
2023-05-10T15:22:05.978Z,27.00
2023-05-10T15:24:53.749Z,26.48
2023-05-10T15:27:40.323Z,25.27
2023-05-10T15:30:26.854Z,24.35
2023-05-10T15:33:12.701Z,23.65
2023-05-10T15:35:58.410Z,23.05
2023-05-10T15:38:44.372Z,22.42
2023-05-10T15:41:30.572Z,22.00
2023-05-10T15:44:16.227Z,21.52
2023-05-10T15:47:03.211Z,20.97
2023-05-10T15:49:49.000Z,20.75
2023-05-10T15:52:36.617Z,20.43
2023-05-10T15:55:21.932Z,20.04
2023-05-10T16:01:26.214Z,19.39
2023-05-10T16:04:13.377Z,19.29
2023-05-10T16:06:59.121Z,19.12
2023-05-10T16:09:44.530Z,18.90
2023-05-10T16:12:30.835Z,18.72
2023-05-10T16:15:16.680Z,18.53
2023-05-10T16:18:03.180Z,18.20
2023-05-10T16:20:48.996Z,18.01
2023-05-10T16:23:34.635Z,17.79
2023-05-10T16:34:17.752Z,17.28
2023-05-10T16:41:52.638Z,16.78
2023-05-10T16:45:23.517Z,16.49
2023-05-10T16:56:38.093Z,15.79
2023-05-10T16:59:24.393Z,15.62
2023-05-10T17:02:09.737Z,15.49
2023-05-10T17:04:55.642Z,15.38
2023-05-10T17:07:41.355Z,15.27
2023-05-10T17:10:27.141Z,15.12
2023-05-10T17:13:12.702Z,14.98
2023-05-10T17:15:58.327Z,14.81
2023-05-10T17:18:45.308Z,14.78
2023-05-10T17:21:31.519Z,14.63
2023-05-10T17:24:16.948Z,14.49
2023-05-10T17:27:03.100Z,14.41
2023-05-10T17:29:48.670Z,14.33
2023-05-10T17:32:34.327Z,14.27
2023-05-10T17:35:20.971Z,14.19
2023-05-10T17:38:07.292Z,14.11
2023-05-10T17:40:52.841Z,14.06
2023-05-10T17:43:39.982Z,13.99
2023-05-10T17:46:25.814Z,13.92
2023-05-10T17:49:11.016Z,13.89
2023-05-10T17:51:56.693Z,13.78
2023-05-10T17:54:42.398Z,13.72
2023-05-10T17:57:27.521Z,13.68
2023-05-10T18:00:13.852Z,13.65
2023-05-10T18:03:00.800Z,13.64
2023-05-10T18:05:47.377Z,13.62
2023-05-10T18:08:34.357Z,13.53
2023-05-10T18:11:19.711Z,13.47
2023-05-10T18:14:05.206Z,13.41
2023-05-10T18:16:51.208Z,13.34
2023-05-10T18:19:36.720Z,13.25
2023-05-10T18:22:22.329Z,13.20
2023-05-10T18:25:08.076Z,13.18
2023-05-10T18:27:53.907Z,13.13
2023-05-10T18:30:40.405Z,13.11
2023-05-10T18:33:25.886Z,13.05
2023-05-10T18:36:11.857Z,12.94
2023-05-10T18:38:57.688Z,12.92
2023-05-10T18:41:45.091Z,12.89
2023-05-10T18:44:30.761Z,12.88
2023-05-10T18:47:15.902Z,12.84
2023-05-10T18:50:04.741Z,12.81
2023-05-10T18:52:50.174Z,12.76
2023-05-10T18:55:35.561Z,12.73
2023-05-10T18:58:21.596Z,12.70
2023-05-10T19:01:07.714Z,12.62
2023-05-10T19:03:53.218Z,12.57
2023-05-10T19:06:39.530Z,12.51
2023-05-10T19:09:26.150Z,12.49
2023-05-10T19:12:11.133Z,12.45
2023-05-10T19:14:56.754Z,12.40
2023-05-10T19:17:45.644Z,12.39
2023-05-10T19:20:31.383Z,12.38
2023-05-10T19:23:17.188Z,12.32
2023-05-10T19:26:02.703Z,12.27
2023-05-10T19:28:51.115Z,12.24
2023-05-10T19:31:36.803Z,12.19
2023-05-10T19:34:22.363Z,12.18
2023-05-10T19:37:07.984Z,12.15
2023-05-10T19:39:53.728Z,12.15
2023-05-10T19:42:38.987Z,12.14
2023-05-10T19:45:24.637Z,12.08
2023-05-10T19:48:10.165Z,12.06
2023-05-10T19:51:01.597Z,12.05
2023-05-10T19:53:46.701Z,12.02
2023-05-10T19:56:32.381Z,12.00
2023-05-10T19:59:18.072Z,11.99
2023-05-10T20:02:06.796Z,11.95
2023-05-10T20:04:51.943Z,11.91
2023-05-10T20:07:37.330Z,11.89
2023-05-10T20:10:24.650Z,11.87
2023-05-10T20:13:11.832Z,11.87
2023-05-10T20:16:00.953Z,11.88
2023-05-10T20:18:46.455Z,11.89
2023-05-10T20:21:32.977Z,11.87
2023-05-10T20:24:18.777Z,11.84
2023-05-10T20:27:04.381Z,11.83
2023-05-10T20:29:49.607Z,11.81
2023-05-10T20:32:35.120Z,11.79
2023-05-10T20:35:20.579Z,11.70
2023-05-10T20:38:05.968Z,11.53
2023-05-10T20:40:51.674Z,11.42
2023-05-10T20:43:37.224Z,11.28
2023-05-10T20:46:23.107Z,11.15
2023-05-10T20:49:10.292Z,10.99
2023-05-10T20:51:56.297Z,10.88
2023-05-10T20:54:42.519Z,10.80
2023-05-10T20:57:28.202Z,10.72
2023-05-10T21:00:14.060Z,10.64
2023-05-10T21:02:59.459Z,10.58
2023-05-10T21:05:44.726Z,10.54
2023-05-10T21:08:30.152Z,10.50
2023-05-10T21:11:15.461Z,10.45
2023-05-10T21:14:01.868Z,10.40
2023-05-10T21:16:47.107Z,10.32
2023-05-10T21:19:32.331Z,10.24
2023-05-10T21:22:18.010Z,10.17
2023-05-10T21:25:03.485Z,10.13
2023-05-10T21:27:48.870Z,10.13
2023-05-10T21:30:34.496Z,10.17
2023-05-10T21:33:20.093Z,10.19
2023-05-10T21:36:05.747Z,10.27
2023-05-10T21:38:51.452Z,10.29
2023-05-10T21:41:36.960Z,10.19
2023-05-10T21:44:22.493Z,10.13
2023-05-10T21:47:08.156Z,10.08
2023-05-10T21:49:53.593Z,10.01
2023-05-10T21:52:38.871Z,9.93
2023-05-10T21:55:24.423Z,9.86
2023-05-10T21:58:10.510Z,9.77
2023-05-10T22:00:56.497Z,9.67
2023-05-10T22:03:42.035Z,9.58
2023-05-10T22:06:27.497Z,9.53
2023-05-10T22:09:13.137Z,9.45
2023-05-10T22:11:58.382Z,9.39
2023-05-10T22:14:45.466Z,9.29
2023-05-10T22:17:31.063Z,9.21
2023-05-10T22:20:16.507Z,9.18
2023-05-10T22:23:02.468Z,9.09
2023-05-10T22:25:48.237Z,8.99
2023-05-10T22:28:35.819Z,8.96
2023-05-10T22:31:21.507Z,8.88
2023-05-10T22:34:07.044Z,8.83
2023-05-10T22:36:53.291Z,8.89
2023-05-10T22:39:38.660Z,8.92
2023-05-10T22:42:23.715Z,8.92
2023-05-10T22:45:10.945Z,8.86
2023-05-10T22:47:56.260Z,8.80
2023-05-10T22:50:42.184Z,8.70
2023-05-10T22:53:27.492Z,8.59
2023-05-10T22:56:13.290Z,8.58
2023-05-10T22:59:01.204Z,8.60
2023-05-10T23:01:48.730Z,8.57
2023-05-10T23:04:34.669Z,8.54
2023-05-10T23:07:20.013Z,8.53
2023-05-10T23:10:05.955Z,8.52
2023-05-10T23:12:51.513Z,8.54
2023-05-10T23:15:36.796Z,8.53
2023-05-10T23:18:22.245Z,8.49
2023-05-10T23:21:07.472Z,8.41
2023-05-10T23:23:54.193Z,8.33
2023-05-10T23:26:39.942Z,8.27
2023-05-10T23:29:26.209Z,8.21
2023-05-10T23:32:12.491Z,8.17
2023-05-10T23:34:57.969Z,8.14
2023-05-10T23:37:43.306Z,8.15
2023-05-10T23:40:28.541Z,8.16
2023-05-10T23:43:15.631Z,8.16
2023-05-10T23:46:01.698Z,8.19
2023-05-10T23:48:47.237Z,8.12
2023-05-10T23:51:33.353Z,8.01
2023-05-10T23:54:18.691Z,7.94
2023-05-10T23:57:04.282Z,7.90
2023-05-10T23:59:50.021Z,7.85
